sensor_id;sensor_type;location;lat;lon;timestamp;temperature;humidity
19242;DHT22;9755;47.790;9.620;2023-03-21T00:02:13;6.30;99.90
19242;DHT22;9755;47.790;9.620;2023-03-21T00:04:41;6.20;99.90
19242;DHT22;9755;47.790;9.620;2023-03-21T00:07:08;6.00;99.90
19242;DHT22;9755;47.790;9.620;2023-03-21T00:09:35;5.90;99.90
19242;DHT22;9755;47.790;9.620;2023-03-21T00:12:03;5.80;99.90
19242;DHT22;9755;47.790;9.620;2023-03-21T00:14:35;5.70;99.90
19242;DHT22;9755;47.790;9.620;2023-03-21T00:17:03;5.80;99.90
19242;DHT22;9755;47.790;9.620;2023-03-21T00:19:30;5.80;99.90
19242;DHT22;9755;47.790;9.620;2023-03-21T00:21:57;5.80;99.90
19242;DHT22;9755;47.790;9.620;2023-03-21T00:24:26;5.90;99.90
19242;DHT22;9755;47.790;9.620;2023-03-21T00:26:53;5.90;99.90
19242;DHT22;9755;47.790;9.620;2023-03-21T00:29:20;5.90;99.90
19242;DHT22;9755;47.790;9.620;2023-03-21T00:31:49;6.10;99.90
19242;DHT22;9755;47.790;9.620;2023-03-21T00:34:16;6.10;99.90
19242;DHT22;9755;47.790;9.620;2023-03-21T00:36:43;6.10;99.90
19242;DHT22;9755;47.790;9.620;2023-03-21T00:39:10;6.00;99.90
19242;DHT22;9755;47.790;9.620;2023-03-21T00:41:38;6.00;99.90
19242;DHT22;9755;47.790;9.620;2023-03-21T00:44:06;6.00;99.90
19242;DHT22;9755;47.790;9.620;2023-03-21T00:46:33;6.10;99.90
19242;DHT22;9755;47.790;9.620;2023-03-21T00:49:02;6.10;99.90
19242;DHT22;9755;47.790;9.620;2023-03-21T00:51:29;6.10;99.90
19242;DHT22;9755;47.790;9.620;2023-03-21T00:53:58;6.20;99.90
19242;DHT22;9755;47.790;9.620;2023-03-21T00:56:25;6.30;99.90
19242;DHT22;9755;47.790;9.620;2023-03-21T00:58:52;6.30;99.90
19242;DHT22;9755;47.790;9.620;2023-03-21T01:01:19;6.40;99.90
19242;DHT22;9755;47.790;9.620;2023-03-21T01:03:46;6.40;99.90
19242;DHT22;9755;47.790;9.620;2023-03-21T01:06:17;6.40;99.90
19242;DHT22;9755;47.790;9.620;2023-03-21T01:08:46;6.40;99.90
19242;DHT22;9755;47.790;9.620;2023-03-21T01:11:14;6.40;99.90
19242;DHT22;9755;47.790;9.620;2023-03-21T01:13:42;6.50;99.90
19242;DHT22;9755;47.790;9.620;2023-03-21T01:16:09;6.50;99.90
19242;DHT22;9755;47.790;9.620;2023-03-21T01:18:38;6.50;99.90
19242;DHT22;9755;47.790;9.620;2023-03-21T01:21:08;6.50;99.90
19242;DHT22;9755;47.790;9.620;2023-03-21T01:23:38;6.60;99.90
19242;DHT22;9755;47.790;9.620;2023-03-21T01:26:06;6.60;99.90
19242;DHT22;9755;47.790;9.620;2023-03-21T01:28:34;6.60;99.90
19242;DHT22;9755;47.790;9.620;2023-03-21T01:31:03;6.60;99.90
19242;DHT22;9755;47.790;9.620;2023-03-21T01:33:31;6.50;99.90
19242;DHT22;9755;47.790;9.620;2023-03-21T01:35:58;6.50;99.90
19242;DHT22;9755;47.790;9.620;2023-03-21T01:38:26;6.50;99.90
19242;DHT22;9755;47.790;9.620;2023-03-21T01:40:54;6.50;99.90
19242;DHT22;9755;47.790;9.620;2023-03-21T01:43:24;6.50;99.90
19242;DHT22;9755;47.790;9.620;2023-03-21T01:46:19;6.50;99.90
19242;DHT22;9755;47.790;9.620;2023-03-21T01:48:50;6.50;99.90
19242;DHT22;9755;47.790;9.620;2023-03-21T01:51:21;6.50;99.90
19242;DHT22;9755;47.790;9.620;2023-03-21T01:53:48;6.50;99.90
19242;DHT22;9755;47.790;9.620;2023-03-21T01:56:22;6.50;99.90
19242;DHT22;9755;47.790;9.620;2023-03-21T01:58:52;6.50;99.90
19242;DHT22;9755;47.790;9.620;2023-03-21T02:01:21;6.50;99.90
19242;DHT22;9755;47.790;9.620;2023-03-21T02:03:49;6.40;99.90
19242;DHT22;9755;47.790;9.620;2023-03-21T02:06:24;6.40;99.90
19242;DHT22;9755;47.790;9.620;2023-03-21T02:09:00;6.40;99.90
19242;DHT22;9755;47.790;9.620;2023-03-21T02:11:30;6.40;99.90
19242;DHT22;9755;47.790;9.620;2023-03-21T02:13:58;6.40;99.90
19242;DHT22;9755;47.790;9.620;2023-03-21T02:16:35;6.40;99.90
19242;DHT22;9755;47.790;9.620;2023-03-21T02:19:20;6.30;99.90
19242;DHT22;9755;47.790;9.620;2023-03-21T02:25:12;6.20;99.90
19242;DHT22;9755;47.790;9.620;2023-03-21T02:27:48;6.20;99.90
19242;DHT22;9755;47.790;9.620;2023-03-21T02:36:26;6.20;99.90
19242;DHT22;9755;47.790;9.620;2023-03-21T02:38:59;6.20;99.90
19242;DHT22;9755;47.790;9.620;2023-03-21T02:41:32;6.20;99.90
19242;DHT22;9755;47.790;9.620;2023-03-21T02:44:06;6.20;99.90
19242;DHT22;9755;47.790;9.620;2023-03-21T02:46:39;6.20;99.90
19242;DHT22;9755;47.790;9.620;2023-03-21T02:49:15;6.20;99.90
19242;DHT22;9755;47.790;9.620;2023-03-21T02:51:44;6.10;99.90
19242;DHT22;9755;47.790;9.620;2023-03-21T02:54:16;6.10;99.90
19242;DHT22;9755;47.790;9.620;2023-03-21T02:56:45;6.10;99.90
19242;DHT22;9755;47.790;9.620;2023-03-21T02:59:14;6.10;99.90
19242;DHT22;9755;47.790;9.620;2023-03-21T03:01:42;6.10;99.90
19242;DHT22;9755;47.790;9.620;2023-03-21T03:04:19;6.10;99.90
19242;DHT22;9755;47.790;9.620;2023-03-21T03:07:01;6.00;99.90
19242;DHT22;9755;47.790;9.620;2023-03-21T03:09:42;6.00;99.90
19242;DHT22;9755;47.790;9.620;2023-03-21T03:12:21;6.00;99.90
19242;DHT22;9755;47.790;9.620;2023-03-21T03:14:56;6.00;99.90
19242;DHT22;9755;47.790;9.620;2023-03-21T03:17:34;6.00;99.90
19242;DHT22;9755;47.790;9.620;2023-03-21T03:20:26;5.90;99.90
19242;DHT22;9755;47.790;9.620;2023-03-21T03:23:02;5.80;99.90
19242;DHT22;9755;47.790;9.620;2023-03-21T03:25:36;5.80;99.90
19242;DHT22;9755;47.790;9.620;2023-03-21T03:28:05;5.90;99.90
19242;DHT22;9755;47.790;9.620;2023-03-21T03:30:35;5.80;99.90
19242;DHT22;9755;47.790;9.620;2023-03-21T03:33:05;5.80;99.90
19242;DHT22;9755;47.790;9.620;2023-03-21T03:35:34;5.90;99.90
19242;DHT22;9755;47.790;9.620;2023-03-21T03:38:04;5.90;99.90
19242;DHT22;9755;47.790;9.620;2023-03-21T03:40:39;5.90;99.90
19242;DHT22;9755;47.790;9.620;2023-03-21T03:43:09;6.00;99.90
19242;DHT22;9755;47.790;9.620;2023-03-21T03:45:48;6.00;99.90
19242;DHT22;9755;47.790;9.620;2023-03-21T03:48:20;6.00;99.90
19242;DHT22;9755;47.790;9.620;2023-03-21T03:50:53;6.00;99.90
19242;DHT22;9755;47.790;9.620;2023-03-21T03:53:23;5.90;99.90
19242;DHT22;9755;47.790;9.620;2023-03-21T03:55:54;5.90;99.90
19242;DHT22;9755;47.790;9.620;2023-03-21T03:58:23;5.90;99.90
19242;DHT22;9755;47.790;9.620;2023-03-21T04:00:51;5.90;99.90
19242;DHT22;9755;47.790;9.620;2023-03-21T04:03:19;5.90;99.90
19242;DHT22;9755;47.790;9.620;2023-03-21T04:05:46;5.80;99.90
19242;DHT22;9755;47.790;9.620;2023-03-21T04:08:14;5.90;99.90
19242;DHT22;9755;47.790;9.620;2023-03-21T04:10:42;5.80;99.90
19242;DHT22;9755;47.790;9.620;2023-03-21T04:13:10;5.70;99.90
19242;DHT22;9755;47.790;9.620;2023-03-21T04:15:37;5.70;99.90
19242;DHT22;9755;47.790;9.620;2023-03-21T04:18:05;5.70;99.90
19242;DHT22;9755;47.790;9.620;2023-03-21T04:20:32;5.80;99.90
19242;DHT22;9755;47.790;9.620;2023-03-21T04:22:59;5.80;99.90
19242;DHT22;9755;47.790;9.620;2023-03-21T04:25:26;5.90;99.90
19242;DHT22;9755;47.790;9.620;2023-03-21T04:27:53;5.90;99.90
19242;DHT22;9755;47.790;9.620;2023-03-21T04:30:22;5.90;99.90
19242;DHT22;9755;47.790;9.620;2023-03-21T04:32:50;5.80;99.90
19242;DHT22;9755;47.790;9.620;2023-03-21T04:35:22;5.80;99.90
19242;DHT22;9755;47.790;9.620;2023-03-21T04:37:50;5.80;99.90
19242;DHT22;9755;47.790;9.620;2023-03-21T04:40:18;5.80;99.90
19242;DHT22;9755;47.790;9.620;2023-03-21T04:42:45;5.80;99.90
19242;DHT22;9755;47.790;9.620;2023-03-21T04:45:14;5.80;99.90
19242;DHT22;9755;47.790;9.620;2023-03-21T04:47:43;5.80;99.90
19242;DHT22;9755;47.790;9.620;2023-03-21T04:50:10;5.80;99.90
19242;DHT22;9755;47.790;9.620;2023-03-21T04:52:38;5.80;99.90
19242;DHT22;9755;47.790;9.620;2023-03-21T04:55:06;5.70;99.90
19242;DHT22;9755;47.790;9.620;2023-03-21T04:57:35;5.70;99.90
19242;DHT22;9755;47.790;9.620;2023-03-21T05:00:04;5.80;99.90
19242;DHT22;9755;47.790;9.620;2023-03-21T05:02:34;5.80;99.90
19242;DHT22;9755;47.790;9.620;2023-03-21T05:05:02;5.80;99.90
19242;DHT22;9755;47.790;9.620;2023-03-21T05:07:29;5.70;99.90
19242;DHT22;9755;47.790;9.620;2023-03-21T05:09:57;5.80;99.90
19242;DHT22;9755;47.790;9.620;2023-03-21T05:12:25;5.80;99.90
19242;DHT22;9755;47.790;9.620;2023-03-21T05:14:52;5.90;99.90
19242;DHT22;9755;47.790;9.620;2023-03-21T05:17:19;6.00;99.90
19242;DHT22;9755;47.790;9.620;2023-03-21T05:19:48;6.10;99.90
19242;DHT22;9755;47.790;9.620;2023-03-21T05:22:16;6.10;99.90
19242;DHT22;9755;47.790;9.620;2023-03-21T05:24:44;6.20;99.90
19242;DHT22;9755;47.790;9.620;2023-03-21T05:27:15;6.20;99.90
19242;DHT22;9755;47.790;9.620;2023-03-21T05:30:00;6.20;99.90
19242;DHT22;9755;47.790;9.620;2023-03-21T05:32:27;6.20;99.90
19242;DHT22;9755;47.790;9.620;2023-03-21T05:34:54;6.20;99.90
19242;DHT22;9755;47.790;9.620;2023-03-21T05:37:23;6.20;99.90
19242;DHT22;9755;47.790;9.620;2023-03-21T05:39:50;6.20;99.90
19242;DHT22;9755;47.790;9.620;2023-03-21T05:42:18;6.20;99.90
19242;DHT22;9755;47.790;9.620;2023-03-21T05:44:45;6.20;99.90
19242;DHT22;9755;47.790;9.620;2023-03-21T05:47:13;6.20;99.90
19242;DHT22;9755;47.790;9.620;2023-03-21T05:49:41;6.10;99.90
19242;DHT22;9755;47.790;9.620;2023-03-21T05:52:08;6.20;99.90
19242;DHT22;9755;47.790;9.620;2023-03-21T05:54:37;6.20;99.90
19242;DHT22;9755;47.790;9.620;2023-03-21T05:57:04;6.30;99.90
19242;DHT22;9755;47.790;9.620;2023-03-21T05:59:32;6.30;99.90
19242;DHT22;9755;47.790;9.620;2023-03-21T06:01:59;6.40;99.90
19242;DHT22;9755;47.790;9.620;2023-03-21T06:04:26;6.40;99.90
19242;DHT22;9755;47.790;9.620;2023-03-21T06:06:53;6.50;99.90
19242;DHT22;9755;47.790;9.620;2023-03-21T06:09:21;6.60;99.90
19242;DHT22;9755;47.790;9.620;2023-03-21T06:11:51;6.70;99.90
19242;DHT22;9755;47.790;9.620;2023-03-21T06:14:19;6.90;99.90
19242;DHT22;9755;47.790;9.620;2023-03-21T06:16:46;6.90;99.90
19242;DHT22;9755;47.790;9.620;2023-03-21T06:19:13;7.00;99.90
19242;DHT22;9755;47.790;9.620;2023-03-21T06:21:40;7.20;99.90
19242;DHT22;9755;47.790;9.620;2023-03-21T06:24:07;7.30;99.90
19242;DHT22;9755;47.790;9.620;2023-03-21T06:26:34;7.50;99.90
19242;DHT22;9755;47.790;9.620;2023-03-21T06:29:03;7.50;99.90
19242;DHT22;9755;47.790;9.620;2023-03-21T06:31:30;7.70;99.90
19242;DHT22;9755;47.790;9.620;2023-03-21T06:33:57;7.90;99.90
19242;DHT22;9755;47.790;9.620;2023-03-21T06:36:24;8.00;99.90
19242;DHT22;9755;47.790;9.620;2023-03-21T06:38:52;8.10;99.90
19242;DHT22;9755;47.790;9.620;2023-03-21T06:41:19;8.20;99.90
19242;DHT22;9755;47.790;9.620;2023-03-21T06:43:46;8.30;99.90
19242;DHT22;9755;47.790;9.620;2023-03-21T06:46:14;8.40;99.90
19242;DHT22;9755;47.790;9.620;2023-03-21T06:48:41;8.60;99.90
19242;DHT22;9755;47.790;9.620;2023-03-21T06:51:11;8.80;99.90
19242;DHT22;9755;47.790;9.620;2023-03-21T06:53:38;8.80;99.90
19242;DHT22;9755;47.790;9.620;2023-03-21T06:56:07;8.80;99.90
19242;DHT22;9755;47.790;9.620;2023-03-21T06:58:34;9.00;99.90
19242;DHT22;9755;47.790;9.620;2023-03-21T07:01:02;9.20;99.90
19242;DHT22;9755;47.790;9.620;2023-03-21T07:03:31;9.40;99.90
19242;DHT22;9755;47.790;9.620;2023-03-21T07:06:03;9.70;99.90
19242;DHT22;9755;47.790;9.620;2023-03-21T07:08:31;10.20;99.90
19242;DHT22;9755;47.790;9.620;2023-03-21T07:10:58;10.50;99.90
19242;DHT22;9755;47.790;9.620;2023-03-21T07:13:25;10.90;99.90
19242;DHT22;9755;47.790;9.620;2023-03-21T07:15:52;11.10;99.90
19242;DHT22;9755;47.790;9.620;2023-03-21T07:18:20;11.30;99.90
19242;DHT22;9755;47.790;9.620;2023-03-21T07:20:49;11.50;99.90
19242;DHT22;9755;47.790;9.620;2023-03-21T07:23:20;11.50;99.90
19242;DHT22;9755;47.790;9.620;2023-03-21T07:25:48;11.60;99.90
19242;DHT22;9755;47.790;9.620;2023-03-21T07:28:15;11.70;99.90
19242;DHT22;9755;47.790;9.620;2023-03-21T07:30:43;11.80;99.90
19242;DHT22;9755;47.790;9.620;2023-03-21T07:33:11;11.90;99.90
19242;DHT22;9755;47.790;9.620;2023-03-21T07:35:38;11.90;99.90
19242;DHT22;9755;47.790;9.620;2023-03-21T07:38:06;11.80;99.90
19242;DHT22;9755;47.790;9.620;2023-03-21T07:40:33;12.10;99.90
19242;DHT22;9755;47.790;9.620;2023-03-21T07:43:01;12.20;99.90
19242;DHT22;9755;47.790;9.620;2023-03-21T07:45:28;12.70;99.90
19242;DHT22;9755;47.790;9.620;2023-03-21T07:47:55;13.10;99.90
19242;DHT22;9755;47.790;9.620;2023-03-21T07:50:22;13.20;99.90
19242;DHT22;9755;47.790;9.620;2023-03-21T07:52:49;14.60;99.90
19242;DHT22;9755;47.790;9.620;2023-03-21T07:55:19;15.90;99.90
19242;DHT22;9755;47.790;9.620;2023-03-21T07:57:49;17.30;98.30
19242;DHT22;9755;47.790;9.620;2023-03-21T08:00:17;18.40;92.90
19242;DHT22;9755;47.790;9.620;2023-03-21T08:02:48;18.30;90.80
19242;DHT22;9755;47.790;9.620;2023-03-21T08:05:20;17.90;90.80
19242;DHT22;9755;47.790;9.620;2023-03-21T08:07:47;18.00;91.60
19242;DHT22;9755;47.790;9.620;2023-03-21T08:10:14;18.50;91.00
19242;DHT22;9755;47.790;9.620;2023-03-21T08:12:43;19.50;87.90
19242;DHT22;9755;47.790;9.620;2023-03-21T08:15:11;20.10;82.90
19242;DHT22;9755;47.790;9.620;2023-03-21T08:17:40;19.70;82.20
19242;DHT22;9755;47.790;9.620;2023-03-21T08:20:12;19.90;80.60
19242;DHT22;9755;47.790;9.620;2023-03-21T08:22:41;19.80;79.30
19242;DHT22;9755;47.790;9.620;2023-03-21T08:25:10;19.40;80.60
19242;DHT22;9755;47.790;9.620;2023-03-21T08:27:38;19.20;81.40
19242;DHT22;9755;47.790;9.620;2023-03-21T08:30:09;19.20;80.80
19242;DHT22;9755;47.790;9.620;2023-03-21T08:32:36;19.00;82.50
19242;DHT22;9755;47.790;9.620;2023-03-21T08:35:05;19.30;80.60
19242;DHT22;9755;47.790;9.620;2023-03-21T08:37:34;19.30;81.30
19242;DHT22;9755;47.790;9.620;2023-03-21T08:40:02;20.10;78.90
19242;DHT22;9755;47.790;9.620;2023-03-21T08:42:32;20.80;76.70
19242;DHT22;9755;47.790;9.620;2023-03-21T08:44:59;21.00;73.50
19242;DHT22;9755;47.790;9.620;2023-03-21T09:21:57;22.10;71.00
19242;DHT22;9755;47.790;9.620;2023-03-21T09:24:24;26.90;52.20
19242;DHT22;9755;47.790;9.620;2023-03-21T09:26:52;26.80;51.10
19242;DHT22;9755;47.790;9.620;2023-03-21T09:29:19;27.00;50.00
19242;DHT22;9755;47.790;9.620;2023-03-21T09:31:47;27.30;48.60
19242;DHT22;9755;47.790;9.620;2023-03-21T09:34:14;27.10;47.10
19242;DHT22;9755;47.790;9.620;2023-03-21T09:36:42;25.90;47.10
19242;DHT22;9755;47.790;9.620;2023-03-21T09:39:14;26.40;46.80
19242;DHT22;9755;47.790;9.620;2023-03-21T09:42:09;26.30;46.00
19242;DHT22;9755;47.790;9.620;2023-03-21T09:44:56;25.20;47.10
19242;DHT22;9755;47.790;9.620;2023-03-21T09:47:29;25.50;48.50
19242;DHT22;9755;47.790;9.620;2023-03-21T09:50:02;25.20;47.10
19242;DHT22;9755;47.790;9.620;2023-03-21T09:52:35;25.10;47.30
19242;DHT22;9755;47.790;9.620;2023-03-21T09:55:15;24.60;46.90
19242;DHT22;9755;47.790;9.620;2023-03-21T09:57:46;23.80;49.00
19242;DHT22;9755;47.790;9.620;2023-03-21T10:00:18;23.40;47.90
19242;DHT22;9755;47.790;9.620;2023-03-21T10:02:47;23.20;48.30
19242;DHT22;9755;47.790;9.620;2023-03-21T10:05:18;23.50;49.40
19242;DHT22;9755;47.790;9.620;2023-03-21T10:07:52;23.00;48.90
19242;DHT22;9755;47.790;9.620;2023-03-21T10:10:25;23.40;48.90
19242;DHT22;9755;47.790;9.620;2023-03-21T10:12:54;23.60;48.80
19242;DHT22;9755;47.790;9.620;2023-03-21T10:15:23;21.80;48.60
19242;DHT22;9755;47.790;9.620;2023-03-21T10:17:55;21.80;50.60
19242;DHT22;9755;47.790;9.620;2023-03-21T10:20:24;21.80;50.50
19242;DHT22;9755;47.790;9.620;2023-03-21T10:22:53;21.80;51.40
19242;DHT22;9755;47.790;9.620;2023-03-21T10:25:27;22.30;49.70
19242;DHT22;9755;47.790;9.620;2023-03-21T10:27:55;22.90;49.60
19242;DHT22;9755;47.790;9.620;2023-03-21T10:30:29;22.30;49.10
19242;DHT22;9755;47.790;9.620;2023-03-21T10:33:01;22.30;47.00
19242;DHT22;9755;47.790;9.620;2023-03-21T10:35:31;21.20;48.80
19242;DHT22;9755;47.790;9.620;2023-03-21T10:38:02;21.50;49.00
19242;DHT22;9755;47.790;9.620;2023-03-21T10:40:30;21.60;48.20
19242;DHT22;9755;47.790;9.620;2023-03-21T10:43:16;22.00;47.10
19242;DHT22;9755;47.790;9.620;2023-03-21T10:45:45;21.30;47.60
19242;DHT22;9755;47.790;9.620;2023-03-21T10:48:12;21.20;47.90
19242;DHT22;9755;47.790;9.620;2023-03-21T10:50:40;19.60;49.80
19242;DHT22;9755;47.790;9.620;2023-03-21T10:53:14;19.40;52.30
19242;DHT22;9755;47.790;9.620;2023-03-21T10:55:47;21.10;52.30
19242;DHT22;9755;47.790;9.620;2023-03-21T10:58:19;22.70;50.50
19242;DHT22;9755;47.790;9.620;2023-03-21T11:00:55;23.40;47.10
19242;DHT22;9755;47.790;9.620;2023-03-21T11:03:26;22.70;48.30
19242;DHT22;9755;47.790;9.620;2023-03-21T11:06:00;22.80;48.20
19242;DHT22;9755;47.790;9.620;2023-03-21T11:08:29;22.60;47.20
19242;DHT22;9755;47.790;9.620;2023-03-21T11:11:02;22.50;47.40
19242;DHT22;9755;47.790;9.620;2023-03-21T11:13:35;22.10;46.60
19242;DHT22;9755;47.790;9.620;2023-03-21T11:16:05;22.10;47.50
19242;DHT22;9755;47.790;9.620;2023-03-21T11:18:39;22.40;48.60
19242;DHT22;9755;47.790;9.620;2023-03-21T11:21:08;22.70;46.90
19242;DHT22;9755;47.790;9.620;2023-03-21T11:23:38;23.00;47.90
19242;DHT22;9755;47.790;9.620;2023-03-21T11:26:15;23.60;47.30
19242;DHT22;9755;47.790;9.620;2023-03-21T11:28:42;23.80;47.00
19242;DHT22;9755;47.790;9.620;2023-03-21T11:31:10;23.00;45.90
19242;DHT22;9755;47.790;9.620;2023-03-21T11:33:40;23.30;46.50
19242;DHT22;9755;47.790;9.620;2023-03-21T11:36:26;23.70;47.50
19242;DHT22;9755;47.790;9.620;2023-03-21T11:38:56;23.60;45.80
19242;DHT22;9755;47.790;9.620;2023-03-21T11:41:29;23.70;46.20
19242;DHT22;9755;47.790;9.620;2023-03-21T11:43:57;23.80;47.30
19242;DHT22;9755;47.790;9.620;2023-03-21T11:46:26;24.30;47.50
19242;DHT22;9755;47.790;9.620;2023-03-21T11:48:53;23.90;46.30
19242;DHT22;9755;47.790;9.620;2023-03-21T11:51:28;23.30;46.20
19242;DHT22;9755;47.790;9.620;2023-03-21T11:54:04;22.80;48.10
19242;DHT22;9755;47.790;9.620;2023-03-21T11:56:37;21.90;46.70
19242;DHT22;9755;47.790;9.620;2023-03-21T11:59:21;21.00;48.90
19242;DHT22;9755;47.790;9.620;2023-03-21T12:02:07;21.50;49.50
19242;DHT22;9755;47.790;9.620;2023-03-21T12:04:45;21.10;50.20
19242;DHT22;9755;47.790;9.620;2023-03-21T12:07:29;21.40;50.90
19242;DHT22;9755;47.790;9.620;2023-03-21T12:10:29;21.10;51.20
19242;DHT22;9755;47.790;9.620;2023-03-21T12:13:06;19.70;55.20
19242;DHT22;9755;47.790;9.620;2023-03-21T12:15:39;20.50;54.50
19242;DHT22;9755;47.790;9.620;2023-03-21T12:18:28;21.60;53.40
19242;DHT22;9755;47.790;9.620;2023-03-21T12:21:01;21.60;51.90
19242;DHT22;9755;47.790;9.620;2023-03-21T12:23:47;21.10;50.50
19242;DHT22;9755;47.790;9.620;2023-03-21T12:26:21;20.70;48.50
19242;DHT22;9755;47.790;9.620;2023-03-21T12:29:04;20.50;49.60
19242;DHT22;9755;47.790;9.620;2023-03-21T12:31:43;21.00;51.50
19242;DHT22;9755;47.790;9.620;2023-03-21T12:34:29;21.70;50.00
19242;DHT22;9755;47.790;9.620;2023-03-21T12:37:14;21.40;49.40
19242;DHT22;9755;47.790;9.620;2023-03-21T12:39:46;21.40;49.20
19242;DHT22;9755;47.790;9.620;2023-03-21T12:42:33;21.70;48.40
19242;DHT22;9755;47.790;9.620;2023-03-21T12:45:12;21.80;48.40
19242;DHT22;9755;47.790;9.620;2023-03-21T12:47:46;21.80;48.20
19242;DHT22;9755;47.790;9.620;2023-03-21T12:50:18;21.30;48.60
19242;DHT22;9755;47.790;9.620;2023-03-21T12:52:48;20.60;49.50
19242;DHT22;9755;47.790;9.620;2023-03-21T12:55:20;19.90;49.50
19242;DHT22;9755;47.790;9.620;2023-03-21T12:57:51;20.00;51.30
19242;DHT22;9755;47.790;9.620;2023-03-21T13:00:23;19.40;52.00
19242;DHT22;9755;47.790;9.620;2023-03-21T13:02:55;19.30;52.90
19242;DHT22;9755;47.790;9.620;2023-03-21T13:05:27;19.50;53.40
19242;DHT22;9755;47.790;9.620;2023-03-21T13:07:59;18.80;52.40
19242;DHT22;9755;47.790;9.620;2023-03-21T13:10:28;18.30;54.40
19242;DHT22;9755;47.790;9.620;2023-03-21T13:13:04;18.40;54.20
19242;DHT22;9755;47.790;9.620;2023-03-21T13:15:52;18.30;54.40
19242;DHT22;9755;47.790;9.620;2023-03-21T13:18:51;18.00;54.70
19242;DHT22;9755;47.790;9.620;2023-03-21T13:21:28;18.00;55.30
19242;DHT22;9755;47.790;9.620;2023-03-21T13:24:02;18.00;56.30
19242;DHT22;9755;47.790;9.620;2023-03-21T13:26:37;17.90;55.90
19242;DHT22;9755;47.790;9.620;2023-03-21T13:29:13;17.60;57.00
19242;DHT22;9755;47.790;9.620;2023-03-21T13:31:47;17.50;57.10
19242;DHT22;9755;47.790;9.620;2023-03-21T13:34:15;17.60;56.30
19242;DHT22;9755;47.790;9.620;2023-03-21T13:36:44;17.60;58.20
19242;DHT22;9755;47.790;9.620;2023-03-21T13:39:17;17.80;57.40
19242;DHT22;9755;47.790;9.620;2023-03-21T13:41:46;17.80;55.10
19242;DHT22;9755;47.790;9.620;2023-03-21T13:44:31;17.80;53.70
19242;DHT22;9755;47.790;9.620;2023-03-21T13:47:05;17.80;53.80
19242;DHT22;9755;47.790;9.620;2023-03-21T13:49:33;17.70;53.60
19242;DHT22;9755;47.790;9.620;2023-03-21T13:52:06;17.60;53.20
19242;DHT22;9755;47.790;9.620;2023-03-21T13:54:52;17.50;53.70
19242;DHT22;9755;47.790;9.620;2023-03-21T13:57:34;17.70;54.50
19242;DHT22;9755;47.790;9.620;2023-03-21T14:00:22;18.00;55.50
19242;DHT22;9755;47.790;9.620;2023-03-21T14:02:58;18.50;53.10
19242;DHT22;9755;47.790;9.620;2023-03-21T14:05:28;18.30;52.10
19242;DHT22;9755;47.790;9.620;2023-03-21T14:07:57;18.60;53.80
19242;DHT22;9755;47.790;9.620;2023-03-21T14:10:29;18.90;53.00
19242;DHT22;9755;47.790;9.620;2023-03-21T14:12:59;18.50;52.00
19242;DHT22;9755;47.790;9.620;2023-03-21T14:15:31;18.50;53.20
19242;DHT22;9755;47.790;9.620;2023-03-21T14:18:01;18.50;53.30
19242;DHT22;9755;47.790;9.620;2023-03-21T14:20:33;18.50;52.50
19242;DHT22;9755;47.790;9.620;2023-03-21T14:23:03;18.70;53.70
19242;DHT22;9755;47.790;9.620;2023-03-21T14:25:33;18.60;50.50
19242;DHT22;9755;47.790;9.620;2023-03-21T14:28:03;18.20;51.10
19242;DHT22;9755;47.790;9.620;2023-03-21T14:30:33;17.80;52.90
19242;DHT22;9755;47.790;9.620;2023-03-21T14:33:11;18.00;53.10
19242;DHT22;9755;47.790;9.620;2023-03-21T14:35:40;17.90;52.70
19242;DHT22;9755;47.790;9.620;2023-03-21T14:38:18;17.50;51.70
19242;DHT22;9755;47.790;9.620;2023-03-21T14:40:46;17.20;55.00
19242;DHT22;9755;47.790;9.620;2023-03-21T14:43:14;17.50;54.80
19242;DHT22;9755;47.790;9.620;2023-03-21T14:45:41;17.70;55.40
19242;DHT22;9755;47.790;9.620;2023-03-21T14:48:12;17.70;55.60
19242;DHT22;9755;47.790;9.620;2023-03-21T14:50:45;17.40;55.70
19242;DHT22;9755;47.790;9.620;2023-03-21T14:53:17;17.60;56.90
19242;DHT22;9755;47.790;9.620;2023-03-21T14:55:49;17.10;56.10
19242;DHT22;9755;47.790;9.620;2023-03-21T14:58:17;17.30;56.00
19242;DHT22;9755;47.790;9.620;2023-03-21T15:00:47;17.60;57.60
19242;DHT22;9755;47.790;9.620;2023-03-21T15:03:18;17.40;54.90
19242;DHT22;9755;47.790;9.620;2023-03-21T15:05:46;17.20;55.80
19242;DHT22;9755;47.790;9.620;2023-03-21T15:08:15;17.10;56.40
19242;DHT22;9755;47.790;9.620;2023-03-21T15:10:53;17.20;57.20
19242;DHT22;9755;47.790;9.620;2023-03-21T15:13:22;17.30;55.40
19242;DHT22;9755;47.790;9.620;2023-03-21T15:15:51;17.00;57.80
19242;DHT22;9755;47.790;9.620;2023-03-21T15:18:25;17.10;57.10
19242;DHT22;9755;47.790;9.620;2023-03-21T15:20:53;16.70;58.10
19242;DHT22;9755;47.790;9.620;2023-03-21T15:23:26;16.80;57.80
19242;DHT22;9755;47.790;9.620;2023-03-21T15:25:54;16.80;59.00
19242;DHT22;9755;47.790;9.620;2023-03-21T15:28:21;16.60;59.90
19242;DHT22;9755;47.790;9.620;2023-03-21T15:30:51;16.60;60.30
19242;DHT22;9755;47.790;9.620;2023-03-21T15:33:19;16.60;60.40
19242;DHT22;9755;47.790;9.620;2023-03-21T15:35:52;16.60;61.20
19242;DHT22;9755;47.790;9.620;2023-03-21T15:38:22;16.60;61.90
19242;DHT22;9755;47.790;9.620;2023-03-21T15:40:50;16.60;61.90
19242;DHT22;9755;47.790;9.620;2023-03-21T15:43:18;16.60;63.70
19242;DHT22;9755;47.790;9.620;2023-03-21T15:45:46;16.60;64.20
19242;DHT22;9755;47.790;9.620;2023-03-21T15:48:13;16.60;64.10
19242;DHT22;9755;47.790;9.620;2023-03-21T15:50:45;16.30;62.90
19242;DHT22;9755;47.790;9.620;2023-03-21T15:53:16;16.30;64.40
19242;DHT22;9755;47.790;9.620;2023-03-21T15:55:46;16.30;66.50
19242;DHT22;9755;47.790;9.620;2023-03-21T15:58:19;16.30;66.70
19242;DHT22;9755;47.790;9.620;2023-03-21T16:00:48;16.30;66.50
19242;DHT22;9755;47.790;9.620;2023-03-21T16:03:20;16.20;68.30
19242;DHT22;9755;47.790;9.620;2023-03-21T16:06:06;16.20;69.60
19242;DHT22;9755;47.790;9.620;2023-03-21T16:08:37;16.10;70.80
19242;DHT22;9755;47.790;9.620;2023-03-21T16:11:15;16.00;71.30
19242;DHT22;9755;47.790;9.620;2023-03-21T16:13:42;16.10;72.90
19242;DHT22;9755;47.790;9.620;2023-03-21T16:16:14;16.00;73.60
19242;DHT22;9755;47.790;9.620;2023-03-21T16:18:42;15.80;74.00
19242;DHT22;9755;47.790;9.620;2023-03-21T16:21:11;15.70;75.70
19242;DHT22;9755;47.790;9.620;2023-03-21T16:23:39;15.60;75.70
19242;DHT22;9755;47.790;9.620;2023-03-21T16:26:10;15.40;77.40
19242;DHT22;9755;47.790;9.620;2023-03-21T16:28:37;15.30;79.50
19242;DHT22;9755;47.790;9.620;2023-03-21T16:31:04;15.20;80.60
19242;DHT22;9755;47.790;9.620;2023-03-21T16:33:31;15.10;81.70
19242;DHT22;9755;47.790;9.620;2023-03-21T16:36:01;15.00;82.70
19242;DHT22;9755;47.790;9.620;2023-03-21T16:38:32;14.90;84.90
19242;DHT22;9755;47.790;9.620;2023-03-21T16:41:00;14.80;85.30
19242;DHT22;9755;47.790;9.620;2023-03-21T16:43:28;14.80;85.80
19242;DHT22;9755;47.790;9.620;2023-03-21T16:45:55;14.70;86.30
19242;DHT22;9755;47.790;9.620;2023-03-21T16:48:22;14.70;87.40
19242;DHT22;9755;47.790;9.620;2023-03-21T16:50:49;14.60;88.40
19242;DHT22;9755;47.790;9.620;2023-03-21T16:53:17;14.60;89.40
19242;DHT22;9755;47.790;9.620;2023-03-21T16:55:44;14.60;90.20
19242;DHT22;9755;47.790;9.620;2023-03-21T16:58:13;14.50;90.20
19242;DHT22;9755;47.790;9.620;2023-03-21T17:00:41;14.40;90.70